createdAt,value
2022-09-21T00:01:37.858Z,99.90
2022-09-21T00:04:06.214Z,99.90
2022-09-21T00:06:37.153Z,99.90
2022-09-21T00:09:09.344Z,99.90
2022-09-21T00:11:39.012Z,99.90
2022-09-21T00:14:10.454Z,99.90
2022-09-21T00:16:38.956Z,99.90
2022-09-21T00:19:07.827Z,99.90
2022-09-21T00:21:38.036Z,99.90
2022-09-21T00:24:07.434Z,99.90
2022-09-21T00:26:35.723Z,99.90
2022-09-21T00:29:05.959Z,99.90
2022-09-21T00:31:34.814Z,99.90
2022-09-21T00:34:07.494Z,99.90
2022-09-21T00:36:35.723Z,99.90
2022-09-21T00:39:04.723Z,99.90
2022-09-21T00:41:34.492Z,99.90
2022-09-21T00:44:26.819Z,99.90
2022-09-21T00:46:57.787Z,99.90
2022-09-21T00:49:28.385Z,99.90
2022-09-21T00:51:59.660Z,99.90
2022-09-21T00:54:30.841Z,99.90
2022-09-21T00:57:02.878Z,99.90
2022-09-21T00:59:34.969Z,99.90
2022-09-21T01:02:03.054Z,99.90
2022-09-21T01:04:32.680Z,99.90
2022-09-21T01:07:05.944Z,99.90
2022-09-21T01:09:37.585Z,99.90
2022-09-21T01:12:19.505Z,99.90
2022-09-21T01:15:09.900Z,99.90
2022-09-21T01:17:45.552Z,99.90
2022-09-21T01:20:51.103Z,99.90
2022-09-21T01:23:44.627Z,99.90
2022-09-21T01:26:25.065Z,99.90
2022-09-21T01:29:18.121Z,99.90
2022-09-21T01:31:52.119Z,99.90
2022-09-21T01:34:29.904Z,99.90
2022-09-21T01:37:02.526Z,99.90
2022-09-21T01:39:34.845Z,99.90
2022-09-21T01:42:04.838Z,99.90
2022-09-21T01:44:37.125Z,99.90
2022-09-21T01:47:12.442Z,99.90
2022-09-21T01:49:46.404Z,99.90
2022-09-21T01:52:19.681Z,99.90
2022-09-21T01:54:53.589Z,99.90
2022-09-21T01:57:30.718Z,99.90
2022-09-21T02:00:01.734Z,99.90
2022-09-21T02:02:45.015Z,99.90
2022-09-21T02:05:16.210Z,99.90
2022-09-21T02:07:44.660Z,99.90
2022-09-21T02:10:19.285Z,99.90
2022-09-21T02:12:48.180Z,99.90
2022-09-21T02:15:18.441Z,99.90
2022-09-21T02:17:58.606Z,99.90
2022-09-21T02:20:31.983Z,99.90
2022-09-21T02:23:07.256Z,99.90
2022-09-21T02:25:47.309Z,99.90
2022-09-21T02:28:26.282Z,99.90
2022-09-21T02:31:03.375Z,99.90
2022-09-21T02:33:38.354Z,99.90
2022-09-21T02:36:12.428Z,99.90
2022-09-21T02:38:47.029Z,99.90
2022-09-21T02:41:18.564Z,99.90
2022-09-21T02:43:50.192Z,99.90
2022-09-21T02:46:26.520Z,99.90
2022-09-21T02:48:58.033Z,99.90
2022-09-21T02:51:30.929Z,99.90
2022-09-21T02:54:01.815Z,99.90
2022-09-21T02:56:32.019Z,99.90
2022-09-21T02:59:02.967Z,99.90
2022-09-21T03:01:34.208Z,99.90
2022-09-21T03:04:03.368Z,99.90
2022-09-21T03:06:34.608Z,99.90
2022-09-21T03:09:03.143Z,99.90
2022-09-21T03:11:38.990Z,99.90
2022-09-21T03:14:10.341Z,99.90
2022-09-21T03:16:40.359Z,99.90
2022-09-21T03:19:09.376Z,99.90
2022-09-21T03:21:42.305Z,99.90
2022-09-21T03:24:12.906Z,99.90
2022-09-21T03:26:41.044Z,99.90
2022-09-21T03:29:09.264Z,99.90
2022-09-21T03:31:38.912Z,99.90
2022-09-21T03:34:07.360Z,99.90
2022-09-21T03:36:35.424Z,99.90
2022-09-21T03:39:03.587Z,99.90
2022-09-21T03:41:31.829Z,99.90
2022-09-21T03:44:00.222Z,99.90
2022-09-21T03:46:28.822Z,99.90
2022-09-21T03:48:58.303Z,99.90
2022-09-21T03:51:26.417Z,99.90
2022-09-21T03:53:54.576Z,99.90
2022-09-21T03:56:22.955Z,99.90
2022-09-21T03:58:51.256Z,99.90
2022-09-21T04:01:19.888Z,99.90
2022-09-21T04:03:48.002Z,99.90
2022-09-21T04:06:18.116Z,99.90
2022-09-21T04:08:46.200Z,99.90
2022-09-21T04:11:16.766Z,99.90
2022-09-21T04:13:45.691Z,99.90
2022-09-21T04:16:14.115Z,99.90
2022-09-21T04:18:42.250Z,99.90
2022-09-21T04:21:10.345Z,99.90
2022-09-21T04:23:39.800Z,99.90
2022-09-21T04:26:07.861Z,99.90
2022-09-21T04:28:35.955Z,99.90
2022-09-21T04:31:04.779Z,99.90
2022-09-21T04:33:32.838Z,99.90
2022-09-21T04:36:01.903Z,99.90
2022-09-21T04:38:32.404Z,99.90
2022-09-21T04:41:03.334Z,99.90
2022-09-21T04:43:31.441Z,99.90
2022-09-21T04:46:00.140Z,99.90
2022-09-21T04:48:28.281Z,99.90
2022-09-21T04:50:56.409Z,99.90
2022-09-21T04:53:24.730Z,99.90
2022-09-21T04:55:53.284Z,99.90
2022-09-21T04:58:24.615Z,99.90
2022-09-21T05:00:56.673Z,99.90
2022-09-21T05:03:25.946Z,99.90
2022-09-21T05:05:55.677Z,99.90
2022-09-21T05:08:39.323Z,99.90
2022-09-21T05:11:08.348Z,99.90
2022-09-21T05:13:37.881Z,99.90
2022-09-21T05:16:06.888Z,99.90
2022-09-21T05:18:35.258Z,99.90
2022-09-21T05:21:04.812Z,99.90
2022-09-21T05:23:33.405Z,99.90
2022-09-21T05:26:01.877Z,99.90
2022-09-21T05:28:31.191Z,99.90
2022-09-21T05:31:17.838Z,99.90
2022-09-21T05:33:53.102Z,99.90
2022-09-21T05:36:36.145Z,99.90
2022-09-21T05:39:04.907Z,99.90
2022-09-21T05:41:33.691Z,99.90
2022-09-21T05:44:02.548Z,99.90
2022-09-21T05:46:39.501Z,99.90
2022-09-21T05:49:18.226Z,99.90
2022-09-21T05:51:57.622Z,99.90
2022-09-21T05:54:38.934Z,99.90
2022-09-21T05:57:15.758Z,99.90
2022-09-21T06:00:00.146Z,99.90
2022-09-21T06:02:45.819Z,99.90
2022-09-21T06:05:16.182Z,99.90
2022-09-21T06:07:44.864Z,99.90
2022-09-21T06:10:15.017Z,99.90
2022-09-21T06:12:43.534Z,99.90
2022-09-21T06:15:13.917Z,99.90
2022-09-21T06:17:44.168Z,99.90
2022-09-21T06:20:12.328Z,99.90
2022-09-21T06:22:40.666Z,99.90
2022-09-21T06:25:09.316Z,99.90
2022-09-21T06:27:37.451Z,99.90
2022-09-21T06:30:06.620Z,99.90
2022-09-21T06:32:34.854Z,99.90
2022-09-21T06:35:04.517Z,99.90
2022-09-21T06:37:32.587Z,99.90
2022-09-21T06:40:00.840Z,99.90
2022-09-21T06:42:29.079Z,99.90
2022-09-21T06:44:58.607Z,99.90
2022-09-21T06:47:27.540Z,99.90
2022-09-21T06:49:55.807Z,99.90
2022-09-21T06:52:25.330Z,99.90
2022-09-21T06:54:53.825Z,99.90
2022-09-21T06:57:21.977Z,99.90
2022-09-21T06:59:50.216Z,99.90
2022-09-21T07:02:18.386Z,99.90
2022-09-21T07:04:46.839Z,99.90
2022-09-21T07:07:15.765Z,99.90
2022-09-21T07:12:34.550Z,99.90
2022-09-21T07:15:02.789Z,99.90
2022-09-21T07:17:33.827Z,99.90
2022-09-21T07:20:03.519Z,99.90
2022-09-21T07:22:34.724Z,99.90
2022-09-21T07:25:05.443Z,99.90
2022-09-21T07:27:36.296Z,99.90
2022-09-21T07:30:05.442Z,99.90
2022-09-21T07:32:33.735Z,99.90
2022-09-21T07:35:02.926Z,99.90
2022-09-21T07:37:33.062Z,99.90
2022-09-21T07:40:04.090Z,99.90
2022-09-21T07:42:34.704Z,99.90
2022-09-21T07:45:04.374Z,99.90
2022-09-21T07:47:35.612Z,99.90
2022-09-21T07:50:03.712Z,99.90
2022-09-21T07:52:31.838Z,99.90
2022-09-21T07:54:59.976Z,99.90
2022-09-21T07:57:46.373Z,99.90
2022-09-21T08:00:16.790Z,99.90
2022-09-21T08:02:47.650Z,99.90
2022-09-21T08:05:16.664Z,99.90
2022-09-21T08:07:44.933Z,99.90
2022-09-21T08:10:13.098Z,99.90
2022-09-21T08:12:41.338Z,99.90
2022-09-21T08:15:30.493Z,99.90
2022-09-21T08:18:02.743Z,99.90
2022-09-21T08:20:30.941Z,99.90
2022-09-21T08:23:00.022Z,99.90
2022-09-21T08:25:28.399Z,99.90
2022-09-21T08:28:00.699Z,99.90
2022-09-21T08:30:31.038Z,99.90
2022-09-21T08:33:00.905Z,99.90
2022-09-21T08:35:29.312Z,99.90
2022-09-21T08:37:57.873Z,99.90
2022-09-21T08:40:26.193Z,99.90
2022-09-21T08:43:01.355Z,99.90
2022-09-21T08:45:35.568Z,99.90
2022-09-21T08:48:13.309Z,99.90
2022-09-21T08:50:46.690Z,99.90
2022-09-21T08:53:18.987Z,99.90
2022-09-21T08:55:47.480Z,99.90
2022-09-21T08:58:23.362Z,99.90
2022-09-21T09:01:06.950Z,99.90
2022-09-21T09:04:03.754Z,99.90
2022-09-21T09:06:46.160Z,99.90
2022-09-21T09:09:32.950Z,99.90
2022-09-21T09:12:22.934Z,99.90
2022-09-21T09:15:11.474Z,99.90
2022-09-21T09:17:50.916Z,99.90
2022-09-21T09:20:25.998Z,99.90
2022-09-21T09:23:04.639Z,99.90
2022-09-21T09:25:37.559Z,99.90
2022-09-21T09:28:19.032Z,99.90
2022-09-21T09:30:48.483Z,99.90
2022-09-21T09:33:22.745Z,99.90
2022-09-21T09:35:58.949Z,99.90
2022-09-21T09:38:31.903Z,99.90
2022-09-21T09:41:21.501Z,99.90
2022-09-21T09:44:04.089Z,99.90
2022-09-21T09:46:36.138Z,99.90
2022-09-21T09:49:18.357Z,95.20
2022-09-21T09:51:49.205Z,95.30
2022-09-21T09:54:19.219Z,92.90
2022-09-21T09:56:47.312Z,91.00
2022-09-21T09:59:25.725Z,74.40
2022-09-21T10:02:03.691Z,79.40
2022-09-21T10:04:33.486Z,79.00
2022-09-21T10:07:03.416Z,65.20
2022-09-21T10:09:34.190Z,63.00
2022-09-21T10:12:09.485Z,64.30
2022-09-21T10:14:38.782Z,58.80
2022-09-21T10:17:09.092Z,49.10
2022-09-21T10:19:38.110Z,44.20
2022-09-21T10:22:07.695Z,45.30
2022-09-21T10:24:40.663Z,19.40
2022-09-21T10:27:15.256Z,21.30
2022-09-21T10:29:45.794Z,24.30
2022-09-21T10:32:23.357Z,17.00
2022-09-21T10:35:13.545Z,17.60
2022-09-21T10:37:46.339Z,7.60
2022-09-21T10:40:31.033Z,1.70
2022-09-21T10:43:01.273Z,1.00
2022-09-21T10:45:31.493Z,1.00
2022-09-21T10:48:07.881Z,1.00
2022-09-21T10:50:37.955Z,1.00
2022-09-21T10:53:20.643Z,4.60
2022-09-21T10:56:14.927Z,4.60
2022-09-21T10:59:13.552Z,1.00
2022-09-21T11:01:47.284Z,1.00
2022-09-21T11:04:21.220Z,71.10
2022-09-21T11:06:53.309Z,27.80
2022-09-21T11:09:27.876Z,38.10
2022-09-21T11:12:00.522Z,56.00
2022-09-21T11:14:42.495Z,39.00
2022-09-21T11:17:19.191Z,35.10
2022-09-21T11:19:55.006Z,7.30
2022-09-21T11:22:31.837Z,30.10
2022-09-21T11:25:13.218Z,27.60
2022-09-21T11:27:45.500Z,1.00
2022-09-21T11:30:15.785Z,1.00
2022-09-21T11:33:02.225Z,1.00
2022-09-21T11:35:40.829Z,1.00
2022-09-21T11:38:13.994Z,1.00
2022-09-21T11:41:13.627Z,1.00
2022-09-21T11:43:56.189Z,1.00
2022-09-21T11:46:32.800Z,1.00
2022-09-21T11:49:16.939Z,1.00
2022-09-21T11:51:58.846Z,1.00
2022-09-21T11:54:52.553Z,1.00
2022-09-21T11:57:25.774Z,1.00
2022-09-21T12:00:04.621Z,1.00
2022-09-21T12:03:00.167Z,1.00
2022-09-21T12:05:33.996Z,1.00
2022-09-21T12:08:31.837Z,1.00
2022-09-21T12:11:12.572Z,1.00
2022-09-21T12:13:50.493Z,1.00
2022-09-21T12:16:26.976Z,1.00
2022-09-21T12:19:01.778Z,1.00
2022-09-21T12:21:33.409Z,1.00
2022-09-21T12:24:06.037Z,1.00
2022-09-21T12:26:39.027Z,1.00
2022-09-21T12:29:16.166Z,1.00
2022-09-21T12:31:52.663Z,1.00
2022-09-21T12:34:25.283Z,1.00
2022-09-21T12:37:02.131Z,1.00
2022-09-21T12:39:37.562Z,1.00
2022-09-21T12:42:12.944Z,1.00
2022-09-21T12:44:54.140Z,1.00
2022-09-21T12:47:27.934Z,1.00
2022-09-21T12:50:02.737Z,1.00
2022-09-21T12:52:32.990Z,1.00
2022-09-21T12:55:06.760Z,1.00
2022-09-21T12:58:14.084Z,1.00
2022-09-21T13:00:50.387Z,1.00
2022-09-21T13:03:26.919Z,1.00
2022-09-21T13:06:37.523Z,1.00
2022-09-21T13:09:09.953Z,1.00
2022-09-21T13:11:52.501Z,1.00
2022-09-21T13:14:20.879Z,1.00
2022-09-21T13:16:57.569Z,1.00
2022-09-21T13:19:29.075Z,1.00
2022-09-21T13:22:23.675Z,1.00
2022-09-21T13:25:03.400Z,1.00
2022-09-21T13:28:01.541Z,1.00
2022-09-21T13:30:33.445Z,1.00
2022-09-21T13:33:04.418Z,1.00
2022-09-21T13:35:53.788Z,1.00
2022-09-21T13:38:26.997Z,99.90
2022-09-21T13:41:00.955Z,99.90
2022-09-21T13:44:04.984Z,99.90
2022-09-21T13:46:53.138Z,99.90
2022-09-21T13:49:42.737Z,99.90
2022-09-21T13:52:31.991Z,99.90
2022-09-21T13:55:02.209Z,99.90
2022-09-21T13:57:37.246Z,99.90
2022-09-21T14:00:35.811Z,99.90
2022-09-21T14:03:19.172Z,99.90
2022-09-21T14:05:51.644Z,99.90
2022-09-21T14:08:24.536Z,99.90
2022-09-21T14:10:55.915Z,99.90
2022-09-21T14:13:29.923Z,99.90
2022-09-21T14:16:45.721Z,99.90
2022-09-21T14:20:02.975Z,99.90
2022-09-21T14:23:11.308Z,99.90
2022-09-21T14:25:52.407Z,99.90
2022-09-21T14:28:30.147Z,1.00
2022-09-21T14:31:02.731Z,1.00
2022-09-21T14:33:36.664Z,1.00
2022-09-21T14:36:09.857Z,1.00
2022-09-21T14:38:46.039Z,1.00
2022-09-21T14:41:19.739Z,1.00
2022-09-21T14:43:53.639Z,1.00
2022-09-21T14:46:52.524Z,1.00
2022-09-21T14:49:44.964Z,1.00
2022-09-21T14:52:32.407Z,1.00
2022-09-21T14:55:17.158Z,1.00
2022-09-21T14:58:07.613Z,1.00
2022-09-21T15:00:48.639Z,1.00
2022-09-21T15:03:51.564Z,1.00
2022-09-21T15:06:45.496Z,1.00
2022-09-21T15:09:52.610Z,1.00
2022-09-21T15:12:28.412Z,1.00
2022-09-21T15:15:03.768Z,1.00
2022-09-21T15:17:32.332Z,1.00
2022-09-21T15:20:01.730Z,1.00
2022-09-21T15:22:31.861Z,1.00
2022-09-21T15:25:05.890Z,1.00
2022-09-21T15:27:37.809Z,1.00
2022-09-21T15:30:07.728Z,1.00
2022-09-21T15:32:38.848Z,1.00
2022-09-21T15:35:18.119Z,1.00
2022-09-21T15:37:46.688Z,1.00
2022-09-21T15:40:21.592Z,1.00
2022-09-21T15:43:03.797Z,1.00
2022-09-21T15:45:35.958Z,1.00
2022-09-21T15:48:08.353Z,1.00
2022-09-21T15:50:38.957Z,1.00
2022-09-21T15:53:16.282Z,1.00
2022-09-21T15:55:48.239Z,1.00
2022-09-21T15:58:25.675Z,1.00
2022-09-21T16:00:57.545Z,1.00
2022-09-21T16:03:27.059Z,1.00
2022-09-21T16:06:00.042Z,1.00
2022-09-21T16:08:32.986Z,1.00
2022-09-21T16:11:19.184Z,1.00
2022-09-21T16:14:07.273Z,1.00
2022-09-21T16:17:22.744Z,1.00
2022-09-21T16:20:19.634Z,1.00
2022-09-21T16:22:50.046Z,1.00
2022-09-21T16:25:34.217Z,1.00
2022-09-21T16:28:04.403Z,1.00
2022-09-21T16:30:48.956Z,1.00
2022-09-21T16:33:37.626Z,1.00
2022-09-21T16:36:44.666Z,1.00
2022-09-21T16:39:15.929Z,1.00
2022-09-21T16:41:50.415Z,1.00
2022-09-21T16:44:22.748Z,1.00
2022-09-21T16:46:59.592Z,1.00
2022-09-21T16:49:31.168Z,1.00
2022-09-21T16:52:01.398Z,1.00
2022-09-21T16:54:30.283Z,1.00
2022-09-21T16:57:01.284Z,1.00
2022-09-21T16:59:30.027Z,1.00
2022-09-21T17:02:00.513Z,1.00
2022-09-21T17:04:30.144Z,1.00
2022-09-21T17:07:00.801Z,1.00
2022-09-21T17:09:32.675Z,1.00
2022-09-21T17:12:02.556Z,1.00
2022-09-21T17:14:35.330Z,1.00
2022-09-21T17:17:08.322Z,1.00
2022-09-21T17:19:36.839Z,1.00
2022-09-21T17:22:07.185Z,1.00
2022-09-21T17:24:50.176Z,1.00
2022-09-21T17:27:21.244Z,1.00
2022-09-21T17:29:50.530Z,1.00
2022-09-21T17:32:20.756Z,1.00
2022-09-21T17:34:53.269Z,1.00
2022-09-21T17:37:24.169Z,1.00
2022-09-21T17:39:53.587Z,1.00
2022-09-21T17:42:25.247Z,1.00
2022-09-21T17:45:13.093Z,1.00
2022-09-21T17:47:42.158Z,1.00
2022-09-21T17:50:23.060Z,1.00
2022-09-21T17:53:10.804Z,1.00
2022-09-21T17:55:39.778Z,1.00
2022-09-21T17:58:23.312Z,1.00
2022-09-21T18:00:59.362Z,1.00
2022-09-21T18:03:29.734Z,1.00
2022-09-21T18:06:00.611Z,1.00
2022-09-21T18:08:33.336Z,1.00
2022-09-21T18:11:14.654Z,1.00
2022-09-21T18:13:54.150Z,1.00
2022-09-21T18:16:28.084Z,1.00
2022-09-21T18:19:23.250Z,1.00
2022-09-21T18:21:57.289Z,1.00
2022-09-21T18:24:31.682Z,1.00
2022-09-21T18:27:00.674Z,1.00
2022-09-21T18:29:39.999Z,1.00
2022-09-21T18:32:30.671Z,1.00
2022-09-21T18:35:25.055Z,1.00
2022-09-21T18:38:03.760Z,1.00
2022-09-21T18:40:39.938Z,1.00
2022-09-21T18:43:25.451Z,1.00
2022-09-21T18:46:01.716Z,1.00
2022-09-21T18:48:48.507Z,1.00
2022-09-21T18:51:24.949Z,1.00
2022-09-21T18:53:56.060Z,1.30
2022-09-21T18:56:27.806Z,1.20
2022-09-21T18:58:57.027Z,5.00
2022-09-21T19:01:29.244Z,3.70
2022-09-21T19:03:58.293Z,4.30
2022-09-21T19:06:47.327Z,4.70
2022-09-21T19:09:38.926Z,6.50
2022-09-21T19:12:18.494Z,10.50
2022-09-21T19:14:57.535Z,14.80
2022-09-21T19:17:38.828Z,16.90
2022-09-21T19:20:24.262Z,18.20
2022-09-21T19:22:58.888Z,23.30
2022-09-21T19:25:35.513Z,21.90
2022-09-21T19:28:19.236Z,23.30
2022-09-21T19:30:50.061Z,23.00
2022-09-21T19:33:48.207Z,27.80
2022-09-21T19:36:15.004Z,35.00
2022-09-21T19:38:43.450Z,38.90
2022-09-21T19:41:35.899Z,42.20
2022-09-21T19:44:17.599Z,40.10
2022-09-21T19:46:52.928Z,49.50
2022-09-21T19:49:22.110Z,47.10
2022-09-21T19:51:53.012Z,42.90
2022-09-21T19:54:40.924Z,39.70
2022-09-21T19:57:34.191Z,39.70
2022-09-21T20:00:06.469Z,42.00
2022-09-21T20:02:41.617Z,47.20
2022-09-21T20:05:16.008Z,48.00
2022-09-21T20:07:48.314Z,52.50
2022-09-21T20:10:36.511Z,53.70
2022-09-21T20:13:21.955Z,57.60
2022-09-21T20:15:57.415Z,66.80
2022-09-21T20:18:32.366Z,72.30
2022-09-21T20:21:00.959Z,66.70
2022-09-21T20:23:30.215Z,63.00
2022-09-21T20:26:04.865Z,65.70
2022-09-21T20:28:33.496Z,64.20
2022-09-21T20:31:04.571Z,61.40
2022-09-21T20:33:33.357Z,57.40
2022-09-21T20:36:02.416Z,58.80
2022-09-21T20:38:31.176Z,60.00
2022-09-21T20:40:59.582Z,67.70
2022-09-21T20:43:32.475Z,70.60
2022-09-21T20:46:02.858Z,67.90
2022-09-21T20:48:31.270Z,64.80
2022-09-21T20:51:04.654Z,62.10
2022-09-21T20:53:33.026Z,62.20
2022-09-21T20:56:02.148Z,59.30
2022-09-21T20:58:31.808Z,64.60
2022-09-21T21:01:06.164Z,65.20
2022-09-21T21:03:34.553Z,73.50
2022-09-21T21:06:18.008Z,70.00
2022-09-21T21:08:46.754Z,72.40
2022-09-21T21:11:15.389Z,74.70
2022-09-21T21:13:43.786Z,81.10
2022-09-21T21:16:13.306Z,74.20
2022-09-21T21:18:43.119Z,62.50
2022-09-21T21:21:11.209Z,67.20
2022-09-21T21:23:53.414Z,66.70
2022-09-21T21:26:33.301Z,56.50
2022-09-21T21:29:10.140Z,60.00
2022-09-21T21:31:39.789Z,60.40
2022-09-21T21:34:08.106Z,63.30
2022-09-21T21:36:36.312Z,67.30
2022-09-21T21:39:04.549Z,63.80
2022-09-21T21:41:34.055Z,61.90
2022-09-21T21:44:02.484Z,66.20
2022-09-21T21:46:30.810Z,65.00
2022-09-21T21:49:00.631Z,61.90
2022-09-21T21:51:28.858Z,64.60
2022-09-21T21:53:57.066Z,63.10
2022-09-21T21:56:26.452Z,59.90
2022-09-21T21:58:55.758Z,61.30
2022-09-21T22:01:26.305Z,65.40
2022-09-21T22:03:55.864Z,67.10
2022-09-21T22:06:26.787Z,73.20
2022-09-21T22:08:56.110Z,80.30
2022-09-21T22:11:25.542Z,84.70
2022-09-21T22:13:55.156Z,78.00
2022-09-21T22:16:24.796Z,69.90
2022-09-21T22:18:53.747Z,71.20
2022-09-21T22:21:23.809Z,74.30
2022-09-21T22:23:55.380Z,74.10
2022-09-21T22:26:24.958Z,68.50
2022-09-21T22:28:56.022Z,70.20
2022-09-21T22:31:29.488Z,70.10
2022-09-21T22:33:58.845Z,70.20
2022-09-21T22:36:29.486Z,65.90
2022-09-21T22:38:59.688Z,66.90
2022-09-21T22:41:29.940Z,66.40
2022-09-21T22:43:59.724Z,65.20
2022-09-21T22:46:29.319Z,68.00
2022-09-21T22:48:57.926Z,78.20
2022-09-21T22:51:26.002Z,73.40
2022-09-21T22:53:54.664Z,72.60
2022-09-21T22:56:25.559Z,72.30
2022-09-21T22:58:55.071Z,76.80
2022-09-21T23:01:25.945Z,69.40
2022-09-21T23:03:55.708Z,77.10
2022-09-21T23:06:27.075Z,75.30
2022-09-21T23:08:57.236Z,79.10
2022-09-21T23:11:28.755Z,87.30
2022-09-21T23:13:58.725Z,83.40
2022-09-21T23:16:29.246Z,84.20
2022-09-21T23:18:57.850Z,90.80
2022-09-21T23:21:27.968Z,92.80
2022-09-21T23:23:56.879Z,93.40
2022-09-21T23:26:27.283Z,91.30
2022-09-21T23:28:57.350Z,93.70
2022-09-21T23:31:27.042Z,91.50
2022-09-21T23:33:57.239Z,93.40
2022-09-21T23:36:28.035Z,94.60
2022-09-21T23:38:57.238Z,95.30
2022-09-21T23:41:29.229Z,96.60
2022-09-21T23:43:58.483Z,91.90
2022-09-21T23:46:28.484Z,92.40
2022-09-21T23:48:57.756Z,94.50
2022-09-21T23:51:26.351Z,96.50
2022-09-21T23:53:54.999Z,98.10
2022-09-21T23:56:24.211Z,96.80
2022-09-21T23:58:54.573Z,94.90
